createdAt,value
2018-06-12T00:00:20.061Z,29.60
2018-06-12T00:02:48.644Z,26.90
2018-06-12T00:05:17.113Z,30.33
2018-06-12T00:07:45.574Z,22.07
2018-06-12T00:10:14.038Z,37.47
2018-06-12T00:12:42.480Z,32.37
2018-06-12T00:15:10.895Z,37.47
2018-06-12T00:17:39.339Z,23.77
2018-06-12T00:20:07.764Z,29.57
2018-06-12T00:22:36.251Z,23.70
2018-06-12T00:25:04.816Z,33.07
2018-06-12T00:27:33.257Z,30.27
2018-06-12T00:30:01.777Z,18.40
2018-06-12T00:32:30.199Z,19.97
2018-06-12T00:34:58.604Z,25.90
2018-06-12T00:37:26.996Z,19.20
2018-06-12T00:39:55.415Z,24.47
2018-06-12T00:42:23.884Z,29.63
2018-06-12T00:44:52.314Z,22.70
2018-06-12T00:47:20.786Z,20.70
2018-06-12T00:49:49.217Z,20.77
2018-06-12T00:52:17.667Z,22.87
2018-06-12T00:54:46.107Z,21.33
2018-06-12T00:57:14.570Z,21.53
2018-06-12T00:59:43.111Z,21.10
2018-06-12T01:02:11.546Z,26.67
2018-06-12T01:04:39.983Z,23.53
2018-06-12T01:07:08.413Z,24.50
2018-06-12T01:09:36.832Z,25.37
2018-06-12T01:12:05.397Z,30.87
2018-06-12T01:14:33.800Z,23.60
2018-06-12T01:17:02.260Z,23.23
2018-06-12T01:19:30.711Z,31.07
2018-06-12T01:21:59.197Z,29.77
2018-06-12T01:24:27.637Z,29.90
2018-06-12T01:26:56.053Z,27.03
2018-06-12T01:29:24.655Z,35.73
2018-06-12T01:31:53.195Z,29.50
2018-06-12T01:34:21.657Z,37.00
2018-06-12T01:36:50.072Z,29.00
2018-06-12T01:39:18.459Z,32.17
2018-06-12T01:41:46.879Z,31.60
2018-06-12T01:44:15.320Z,35.47
2018-06-12T01:46:43.728Z,31.47
2018-06-12T01:49:12.183Z,29.97
2018-06-12T01:51:40.651Z,34.87
2018-06-12T01:54:09.145Z,29.80
2018-06-12T01:56:37.693Z,31.60
2018-06-12T01:59:06.100Z,35.03
2018-06-12T02:01:34.645Z,42.53
2018-06-12T02:04:03.330Z,35.77
2018-06-12T02:06:31.896Z,34.13
2018-06-12T02:09:00.345Z,43.03
2018-06-12T02:11:28.752Z,33.63
2018-06-12T02:13:57.235Z,33.33
2018-06-12T02:16:25.926Z,39.10
2018-06-12T02:18:54.422Z,39.50
2018-06-12T02:21:22.896Z,36.20
2018-06-12T02:23:51.571Z,37.03
2018-06-12T02:26:19.996Z,41.93
2018-06-12T02:28:48.448Z,40.93
2018-06-12T02:31:16.891Z,39.20
2018-06-12T02:33:45.522Z,45.43
2018-06-12T02:36:13.977Z,41.93
2018-06-12T02:38:42.388Z,48.33
2018-06-12T02:41:10.840Z,43.13
2018-06-12T02:43:39.256Z,44.00
2018-06-12T02:46:07.704Z,44.40
2018-06-12T02:48:36.177Z,42.60
2018-06-12T02:51:04.953Z,44.07
2018-06-12T02:53:33.400Z,48.90
2018-06-12T02:56:02.142Z,45.77
2018-06-12T02:58:30.660Z,47.00
2018-06-12T03:00:59.091Z,41.20
2018-06-12T03:03:27.616Z,44.40
2018-06-12T03:05:56.077Z,44.00
2018-06-12T03:08:24.553Z,53.70
2018-06-12T03:10:53.053Z,46.70
2018-06-12T03:13:21.446Z,43.70
2018-06-12T03:15:49.825Z,52.27
2018-06-12T03:18:17.929Z,48.93
2018-06-12T03:20:47.288Z,51.90
2018-06-12T03:23:16.819Z,45.40
2018-06-12T03:25:49.692Z,52.37
2018-06-12T03:28:18.689Z,47.57
2018-06-12T03:30:47.145Z,46.50
2018-06-12T03:33:15.578Z,49.83
2018-06-12T03:35:45.213Z,50.07
2018-06-12T03:38:13.693Z,47.73
2018-06-12T03:40:42.203Z,51.30
2018-06-12T03:43:10.637Z,47.23
2018-06-12T03:45:39.060Z,54.73
2018-06-12T03:48:07.515Z,52.60
2018-06-12T03:50:35.979Z,54.23
2018-06-12T03:53:04.860Z,54.67
2018-06-12T03:55:33.304Z,40.93
2018-06-12T03:58:01.822Z,48.00
2018-06-12T04:00:30.456Z,47.57
2018-06-12T04:02:58.889Z,62.20
2018-06-12T04:05:27.415Z,48.03
2018-06-12T04:07:55.836Z,45.23
2018-06-12T04:10:24.344Z,54.03
2018-06-12T04:12:52.910Z,53.00
2018-06-12T04:15:21.413Z,48.80
2018-06-12T04:17:49.885Z,52.33
2018-06-12T04:20:18.337Z,50.33
2018-06-12T04:22:46.820Z,50.00
2018-06-12T04:25:15.310Z,49.83
2018-06-12T04:27:43.741Z,52.97
2018-06-12T04:30:12.308Z,48.43
2018-06-12T04:32:40.781Z,50.43
2018-06-12T04:35:09.319Z,51.83
2018-06-12T04:37:37.740Z,48.33
2018-06-12T04:40:06.473Z,46.87
2018-06-12T04:42:34.945Z,45.87
2018-06-12T04:45:03.404Z,44.67
2018-06-12T04:47:31.879Z,46.87
2018-06-12T04:50:00.352Z,42.77
2018-06-12T04:52:28.797Z,48.00
2018-06-12T04:54:57.283Z,49.57
2018-06-12T04:57:25.841Z,55.43
2018-06-12T04:59:54.371Z,53.53
2018-06-12T05:02:22.830Z,57.13
2018-06-12T05:04:51.333Z,53.97
2018-06-12T05:07:19.542Z,52.03
2018-06-12T05:09:48.034Z,42.93
2018-06-12T05:12:16.495Z,55.43
2018-06-12T05:14:44.933Z,49.20
2018-06-12T05:17:13.461Z,49.90
2018-06-12T05:19:42.168Z,52.80
2018-06-12T05:22:10.587Z,46.10
2018-06-12T05:24:39.040Z,54.80
2018-06-12T05:27:07.651Z,47.40
2018-06-12T05:29:36.193Z,47.57
2018-06-12T05:32:04.750Z,42.77
2018-06-12T05:34:33.221Z,47.17
2018-06-12T05:37:01.678Z,50.03
2018-06-12T05:39:30.161Z,53.30
2018-06-12T05:41:58.723Z,52.30
2018-06-12T05:44:27.161Z,48.13
2018-06-12T05:46:55.607Z,47.33
2018-06-12T05:49:24.072Z,56.13
2018-06-12T05:51:52.541Z,50.73
2018-06-12T05:54:21.284Z,48.20
2018-06-12T05:56:49.727Z,52.80
2018-06-12T05:59:18.229Z,54.83
2018-06-12T06:01:47.258Z,50.67
2018-06-12T06:04:15.702Z,62.23
2018-06-12T06:06:44.157Z,56.80
2018-06-12T06:09:12.612Z,58.33
2018-06-12T06:11:41.080Z,58.30
2018-06-12T06:14:09.520Z,61.47
2018-06-12T06:16:38.490Z,55.53
2018-06-12T06:19:07.132Z,58.50
2018-06-12T06:21:35.600Z,66.87
2018-06-12T06:24:04.128Z,66.83
2018-06-12T06:26:32.771Z,57.60
2018-06-12T06:29:01.250Z,60.57
2018-06-12T06:31:29.691Z,63.20
2018-06-12T06:33:58.121Z,63.27
2018-06-12T06:36:26.540Z,59.03
2018-06-12T06:38:54.962Z,57.87
2018-06-12T06:41:23.395Z,61.17
2018-06-12T06:43:51.843Z,64.07
2018-06-12T06:46:32.620Z,61.23
2018-06-12T06:49:01.440Z,63.57
2018-06-12T06:51:29.867Z,73.70
2018-06-12T06:53:58.339Z,77.40
2018-06-12T06:56:26.962Z,64.37
2018-06-12T06:58:55.451Z,58.00
2018-06-12T07:01:23.892Z,70.63
2018-06-12T07:03:52.372Z,56.77
2018-06-12T07:06:20.853Z,79.10
2018-06-12T07:08:49.416Z,87.93
2018-06-12T07:11:18.014Z,82.43
2018-06-12T07:13:46.616Z,85.23
2018-06-12T07:16:15.026Z,66.93
2018-06-12T07:18:43.482Z,75.30
2018-06-12T07:21:18.573Z,65.27
2018-06-12T07:23:47.280Z,71.60
2018-06-12T07:26:15.860Z,81.23
2018-06-12T07:28:44.414Z,69.97
2018-06-12T07:31:12.907Z,66.83
2018-06-12T07:33:41.380Z,100.57
2018-06-12T07:36:09.975Z,63.30
2018-06-12T07:38:38.461Z,77.40
2018-06-12T07:41:07.145Z,71.60
2018-06-12T07:43:35.637Z,78.13
2018-06-12T07:46:04.340Z,79.17
2018-06-12T07:48:32.925Z,83.77
2018-06-12T07:51:01.369Z,70.43
2018-06-12T07:53:29.808Z,75.83
2018-06-12T07:55:58.249Z,78.60
2018-06-12T07:58:26.721Z,70.07
2018-06-12T08:00:55.193Z,68.27
2018-06-12T08:03:23.601Z,73.50
2018-06-12T08:05:52.204Z,78.70
2018-06-12T08:08:20.631Z,74.63
2018-06-12T08:10:49.177Z,78.13
2018-06-12T08:13:17.920Z,68.30
2018-06-12T08:15:46.347Z,86.20
2018-06-12T08:18:14.770Z,76.43
2018-06-12T08:20:43.218Z,79.80
2018-06-12T08:23:11.738Z,84.60
2018-06-12T08:25:40.822Z,63.13
2018-06-12T08:28:09.417Z,62.00
2018-06-12T08:30:37.928Z,64.20
2018-06-12T08:33:06.413Z,72.83
2018-06-12T08:35:34.898Z,66.63
2018-06-12T08:38:03.330Z,76.80
2018-06-12T08:40:31.816Z,67.83
2018-06-12T08:43:00.265Z,58.63
2018-06-12T08:45:28.865Z,64.53
2018-06-12T08:47:57.292Z,63.50
2018-06-12T08:50:25.764Z,65.70
2018-06-12T08:52:54.189Z,78.67
2018-06-12T08:55:22.641Z,63.83
2018-06-12T08:57:51.122Z,66.53
2018-06-12T09:00:19.593Z,62.30
2018-06-12T09:02:48.053Z,66.03
2018-06-12T09:05:16.445Z,72.57
2018-06-12T09:07:44.932Z,63.47
2018-06-12T09:10:13.343Z,66.17
2018-06-12T09:12:41.982Z,62.57
2018-06-12T09:15:10.454Z,60.37
2018-06-12T09:17:38.911Z,67.60
2018-06-12T09:20:07.385Z,55.00
2018-06-12T09:22:35.888Z,64.97
2018-06-12T09:25:04.424Z,58.13
2018-06-12T09:27:38.239Z,58.83
2018-06-12T09:30:06.737Z,71.93
2018-06-12T09:32:35.410Z,58.97
2018-06-12T09:35:03.952Z,62.83
2018-06-12T09:37:32.410Z,59.57
2018-06-12T09:40:00.923Z,62.77
2018-06-12T09:42:29.534Z,62.57
2018-06-12T09:44:58.204Z,61.07
2018-06-12T09:47:26.785Z,58.23
2018-06-12T09:49:55.228Z,58.83
2018-06-12T09:52:25.272Z,59.67
2018-06-12T09:54:54.860Z,55.20
2018-06-12T09:57:23.895Z,52.73
2018-06-12T09:59:52.549Z,48.47
2018-06-12T10:02:21.033Z,53.23
2018-06-12T10:04:49.681Z,48.23
2018-06-12T10:07:18.112Z,48.90
2018-06-12T10:09:46.767Z,45.30
2018-06-12T10:12:15.268Z,47.80
2018-06-12T10:14:43.794Z,50.37
2018-06-12T10:17:12.637Z,44.00
2018-06-12T10:19:41.147Z,43.00
2018-06-12T10:22:09.784Z,47.77
2018-06-12T10:24:38.658Z,46.17
2018-06-12T10:27:07.209Z,43.93
2018-06-12T10:29:35.375Z,49.90
2018-06-12T10:32:04.365Z,38.60
2018-06-12T10:34:32.840Z,36.93
2018-06-12T10:37:01.561Z,35.20
2018-06-12T10:39:30.250Z,33.67
2018-06-12T10:41:58.801Z,37.20
2018-06-12T10:44:27.554Z,40.90
2018-06-12T10:46:56.035Z,40.63
2018-06-12T10:49:27.112Z,39.60
2018-06-12T10:51:56.013Z,55.73
2018-06-12T10:54:24.683Z,40.60
2018-06-12T10:56:53.379Z,39.70
2018-06-12T10:59:21.996Z,43.70
2018-06-12T11:01:50.445Z,48.43
2018-06-12T11:04:18.922Z,44.90
2018-06-12T11:06:47.393Z,49.93
2018-06-12T11:09:15.885Z,37.97
2018-06-12T11:11:44.552Z,47.20
2018-06-12T11:14:13.108Z,44.03
2018-06-12T11:16:41.657Z,51.63
2018-06-12T11:19:10.293Z,55.57
2018-06-12T11:21:39.370Z,50.20
2018-06-12T11:24:07.983Z,54.63
2018-06-12T11:26:36.592Z,51.97
2018-06-12T11:29:05.107Z,47.10
2018-06-12T11:31:33.584Z,61.20
2018-06-12T11:34:02.049Z,78.27
2018-06-12T11:36:30.528Z,69.33
2018-06-12T11:38:59.194Z,55.33
2018-06-12T11:41:27.611Z,57.40
2018-06-12T11:43:56.432Z,69.10
2018-06-12T11:46:24.854Z,60.00
2018-06-12T11:48:54.197Z,52.03
2018-06-12T12:04:22.150Z,61.93
2018-06-12T12:06:51.485Z,60.17
2018-06-12T12:09:19.955Z,53.00
2018-06-12T12:11:48.466Z,61.43
2018-06-12T12:14:16.852Z,54.23
2018-06-12T12:16:45.412Z,52.40
2018-06-12T12:19:13.880Z,61.07
2018-06-12T12:21:42.526Z,43.50
2018-06-12T12:24:10.979Z,53.63
2018-06-12T12:26:39.423Z,50.93
2018-06-12T12:29:08.121Z,48.73
2018-06-12T12:31:36.567Z,55.73
2018-06-12T12:34:05.369Z,56.90
2018-06-12T12:36:33.800Z,59.77
2018-06-12T12:39:02.227Z,44.67
2018-06-12T12:41:30.647Z,47.53
2018-06-12T12:43:59.054Z,56.03
2018-06-12T12:46:27.508Z,49.03
2018-06-12T12:48:55.950Z,46.07
2018-06-12T12:51:24.386Z,60.27
2018-06-12T12:53:52.831Z,48.70
2018-06-12T12:56:21.056Z,45.50
2018-06-12T12:58:49.564Z,49.63
2018-06-12T13:01:17.988Z,54.03
2018-06-12T13:03:46.492Z,50.73
2018-06-12T13:06:15.168Z,54.87
2018-06-12T13:08:43.614Z,48.30
2018-06-12T13:11:12.084Z,50.47
2018-06-12T13:13:40.557Z,59.57
2018-06-12T13:16:09.088Z,47.27
2018-06-12T13:18:37.533Z,48.33
2018-06-12T13:21:05.950Z,47.97
2018-06-12T13:23:34.424Z,48.53
2018-06-12T13:26:02.878Z,56.90
2018-06-12T13:28:31.845Z,50.83
2018-06-12T13:31:00.925Z,46.10
2018-06-12T13:33:29.337Z,45.70
2018-06-12T13:35:57.766Z,46.93
2018-06-12T13:38:26.188Z,46.53
2018-06-12T13:40:54.668Z,45.53
2018-06-12T13:43:23.125Z,43.30
2018-06-12T13:45:51.586Z,48.73
2018-06-12T13:48:20.008Z,49.07
2018-06-12T13:50:48.684Z,46.87
2018-06-12T13:53:17.318Z,45.73
2018-06-12T13:55:46.157Z,40.83
2018-06-12T13:58:14.651Z,45.50
2018-06-12T14:00:43.192Z,56.93
2018-06-12T14:03:11.673Z,64.00
2018-06-12T14:05:40.155Z,52.40
2018-06-12T14:08:08.610Z,52.53
2018-06-12T14:10:37.066Z,48.90
2018-06-12T14:13:05.525Z,57.00
2018-06-12T14:15:33.980Z,46.33
2018-06-12T14:18:02.448Z,49.57
2018-06-12T14:20:30.969Z,46.80
2018-06-12T14:22:59.849Z,50.20
2018-06-12T14:25:28.396Z,56.13
2018-06-12T14:27:56.945Z,58.57
2018-06-12T14:30:25.401Z,48.80
2018-06-12T14:32:53.882Z,45.53
2018-06-12T14:35:22.321Z,44.83
2018-06-12T14:37:50.932Z,43.10
2018-06-12T14:40:19.410Z,40.20
2018-06-12T14:42:47.859Z,43.00
2018-06-12T14:45:16.341Z,50.20
2018-06-12T14:47:44.831Z,45.37
2018-06-12T14:50:13.716Z,36.67
2018-06-12T14:52:42.196Z,43.97
2018-06-12T14:55:11.073Z,34.33
2018-06-12T14:57:39.590Z,34.60
2018-06-12T15:00:08.129Z,38.47
2018-06-12T15:02:36.670Z,42.10
2018-06-12T15:05:05.172Z,38.13
2018-06-12T15:07:33.928Z,33.53
2018-06-12T15:10:02.571Z,30.83
2018-06-12T15:12:31.068Z,38.17
2018-06-12T15:14:59.579Z,37.40
2018-06-12T15:17:28.048Z,42.73
2018-06-12T15:19:56.718Z,40.90
2018-06-12T15:22:25.249Z,42.60
2018-06-12T15:24:53.878Z,41.47
2018-06-12T15:27:23.604Z,50.00
2018-06-12T15:29:52.072Z,34.20
2018-06-12T15:32:20.703Z,44.57
2018-06-12T15:34:49.163Z,36.10
2018-06-12T15:37:17.633Z,42.27
2018-06-12T15:39:46.163Z,35.30
2018-06-12T15:42:14.651Z,27.87
2018-06-12T15:44:43.164Z,34.30
2018-06-12T15:47:11.703Z,34.40
2018-06-12T15:49:40.131Z,33.77
2018-06-12T15:52:08.642Z,39.97
2018-06-12T15:54:37.375Z,38.50
2018-06-12T15:57:06.195Z,37.67
2018-06-12T15:59:35.733Z,33.73
2018-06-12T16:02:04.214Z,48.73
2018-06-12T16:04:32.627Z,44.43
2018-06-12T16:07:01.075Z,38.50
2018-06-12T16:09:29.517Z,34.27
2018-06-12T16:11:58.010Z,39.83
2018-06-12T16:14:26.396Z,41.40
2018-06-12T16:16:54.901Z,30.23
2018-06-12T16:19:23.400Z,31.00
2018-06-12T16:21:51.968Z,32.73
2018-06-12T16:24:20.490Z,35.63
2018-06-12T16:26:49.608Z,36.27
2018-06-12T16:29:18.080Z,37.17
2018-06-12T16:31:46.732Z,33.33
2018-06-12T16:34:15.158Z,40.47
2018-06-12T16:36:43.620Z,30.40
2018-06-12T16:39:12.063Z,39.37
2018-06-12T16:41:41.109Z,35.73
2018-06-12T16:44:09.565Z,28.87
2018-06-12T16:46:39.000Z,32.47
2018-06-12T16:49:07.473Z,39.13
2018-06-12T16:51:35.922Z,34.33
2018-06-12T16:54:04.368Z,37.40
2018-06-12T16:56:32.976Z,28.40
2018-06-12T16:59:01.579Z,28.10
2018-06-12T17:01:29.985Z,32.37
2018-06-12T17:03:58.793Z,37.27
2018-06-12T17:06:27.313Z,32.50
2018-06-12T17:08:55.759Z,28.83
2018-06-12T17:11:24.199Z,39.93
2018-06-12T17:13:52.711Z,39.30
2018-06-12T17:16:21.223Z,32.87
2018-06-12T17:18:49.683Z,31.80
2018-06-12T17:21:18.222Z,41.73
2018-06-12T17:23:46.810Z,30.70
2018-06-12T17:26:15.522Z,40.03
2018-06-12T17:28:43.635Z,35.60
2018-06-12T17:31:13.952Z,25.77
2018-06-12T17:33:42.373Z,35.83
2018-06-12T17:36:10.825Z,40.67
2018-06-12T17:38:39.394Z,29.87
2018-06-12T17:41:07.971Z,35.40
2018-06-12T17:43:36.550Z,30.67
2018-06-12T17:46:05.173Z,30.40
2018-06-12T17:48:34.068Z,27.43
2018-06-12T17:51:02.512Z,34.57
2018-06-12T17:53:31.323Z,31.13
2018-06-12T17:55:59.916Z,36.23
2018-06-12T17:58:31.035Z,32.43
2018-06-12T18:01:00.107Z,38.00
2018-06-12T18:03:29.252Z,31.63
2018-06-12T18:05:58.001Z,39.83
2018-06-12T18:08:26.476Z,33.17
2018-06-12T18:10:56.018Z,40.23
2018-06-12T18:13:24.693Z,35.63
2018-06-12T18:15:53.529Z,35.83
2018-06-12T18:18:22.112Z,43.13
2018-06-12T18:20:50.588Z,37.93
2018-06-12T18:23:19.067Z,36.13
2018-06-12T18:25:56.449Z,34.37
2018-06-12T18:28:25.294Z,35.10
2018-06-12T18:30:53.980Z,38.23
2018-06-12T18:33:22.418Z,43.13
2018-06-12T18:35:50.900Z,43.10
2018-06-12T18:38:19.341Z,34.87
2018-06-12T18:40:48.021Z,37.77
2018-06-12T18:43:16.153Z,27.00
2018-06-12T18:45:44.622Z,41.07
2018-06-12T18:48:22.973Z,32.17
2018-06-12T18:50:51.536Z,48.03
2018-06-12T18:53:20.040Z,37.47
2018-06-12T18:55:48.650Z,40.73
2018-06-12T18:58:17.143Z,41.07
2018-06-12T19:00:45.595Z,37.57
2018-06-12T19:03:14.113Z,40.73
2018-06-12T19:05:42.708Z,37.63
2018-06-12T19:08:11.256Z,44.70
2018-06-12T19:10:39.788Z,38.03
2018-06-12T19:13:08.441Z,39.90
2018-06-12T19:15:36.907Z,40.90
2018-06-12T19:18:05.889Z,37.50
2018-06-12T19:20:34.482Z,31.37
2018-06-12T19:23:04.695Z,43.83
2018-06-12T19:25:33.340Z,35.50
2018-06-12T19:28:02.107Z,35.80
2018-06-12T19:30:30.912Z,39.27
2018-06-12T19:32:59.871Z,36.77
2018-06-12T19:35:28.948Z,37.30
2018-06-12T19:37:57.754Z,43.80
2018-06-12T19:40:26.322Z,29.90
2018-06-12T19:42:54.797Z,30.83
2018-06-12T19:45:23.331Z,32.50
2018-06-12T19:47:51.856Z,33.23
2018-06-12T19:50:20.345Z,25.23
2018-06-12T19:52:49.761Z,35.20
2018-06-12T19:55:18.779Z,29.27
2018-06-12T19:57:47.247Z,29.83
2018-06-12T20:00:15.902Z,34.80
2018-06-12T20:02:44.654Z,34.97
2018-06-12T20:05:13.443Z,24.77
2018-06-12T20:07:42.048Z,23.13
2018-06-12T20:10:10.472Z,27.60
2018-06-12T20:12:38.939Z,32.40
2018-06-12T20:15:07.465Z,27.53
2018-06-12T20:17:36.024Z,26.40
2018-06-12T20:20:05.012Z,29.23
2018-06-12T20:22:33.124Z,31.57
2018-06-12T20:25:01.827Z,28.83
2018-06-12T20:27:30.616Z,23.50
2018-06-12T20:29:59.078Z,28.90
2018-06-12T20:32:27.508Z,26.90
2018-06-12T20:34:56.097Z,35.73
2018-06-12T20:37:24.547Z,42.47
2018-06-12T20:39:53.011Z,32.90
2018-06-12T20:42:21.886Z,40.83
2018-06-12T20:44:50.417Z,33.57
2018-06-12T20:47:19.988Z,33.27
2018-06-12T20:49:48.474Z,29.53
2018-06-12T20:52:16.926Z,37.17
2018-06-12T20:54:45.448Z,32.80
2018-06-12T20:57:13.911Z,47.43
2018-06-12T20:59:42.594Z,30.40
2018-06-12T21:02:11.161Z,33.73
2018-06-12T21:04:39.350Z,35.27
2018-06-12T21:07:07.840Z,28.53
2018-06-12T21:09:36.868Z,31.20
2018-06-12T21:12:05.521Z,32.40
2018-06-12T21:14:33.967Z,35.00
2018-06-12T21:17:02.379Z,30.90
2018-06-12T21:19:30.816Z,41.53
2018-06-12T21:21:59.268Z,36.83
2018-06-12T21:24:27.850Z,40.47
2018-06-12T21:26:56.331Z,32.87
2018-06-12T21:29:24.826Z,29.60
2018-06-12T21:31:53.303Z,28.87
2018-06-12T21:34:21.764Z,35.30
2018-06-12T21:36:50.248Z,21.40
2018-06-12T21:39:18.788Z,26.60
2018-06-12T21:41:47.316Z,22.07
2018-06-12T21:44:15.891Z,29.07
2018-06-12T21:46:44.764Z,27.30
2018-06-12T21:49:13.197Z,23.77
2018-06-12T21:51:41.643Z,20.83
2018-06-12T21:54:10.216Z,22.70
2018-06-12T21:56:38.530Z,17.20
2018-06-12T21:59:06.933Z,34.47
2018-06-12T22:01:35.373Z,15.97
2018-06-12T22:04:03.885Z,20.03
2018-06-12T22:06:32.326Z,19.97
2018-06-12T22:09:00.753Z,17.73
2018-06-12T22:11:29.221Z,16.53
2018-06-12T22:13:57.665Z,33.63
2018-06-12T22:16:26.158Z,17.33
2018-06-12T22:18:55.117Z,17.47
2018-06-12T22:21:23.572Z,17.27
2018-06-12T22:23:52.036Z,19.83
2018-06-12T22:26:20.504Z,17.70
2018-06-12T22:28:48.985Z,21.17
2018-06-12T22:31:17.450Z,23.53
2018-06-12T22:33:45.859Z,14.00
2018-06-12T22:36:14.529Z,22.27
2018-06-12T22:38:42.934Z,19.73
2018-06-12T22:41:11.369Z,15.50
2018-06-12T22:43:39.831Z,18.27
2018-06-12T22:46:08.339Z,23.00
2018-06-12T22:48:36.743Z,21.63
2018-06-12T22:51:05.176Z,22.40
2018-06-12T22:53:33.808Z,25.17
2018-06-12T22:56:02.201Z,16.40
2018-06-12T22:58:30.966Z,21.30
2018-06-12T23:00:59.449Z,20.13
2018-06-12T23:03:27.877Z,23.87
2018-06-12T23:05:56.302Z,22.63
2018-06-12T23:08:24.825Z,20.03
2018-06-12T23:10:53.297Z,26.93
2018-06-12T23:13:21.762Z,26.80
2018-06-12T23:15:50.180Z,28.07
2018-06-12T23:18:18.692Z,26.07
2018-06-12T23:21:59.267Z,33.70
2018-06-12T23:24:27.779Z,25.30
2018-06-12T23:26:56.216Z,26.23
2018-06-12T23:29:24.708Z,23.87
2018-06-12T23:31:53.269Z,24.23
2018-06-12T23:34:21.715Z,22.70
2018-06-12T23:36:50.217Z,22.73
2018-06-12T23:39:18.679Z,24.83
2018-06-12T23:41:47.172Z,21.43
2018-06-12T23:44:15.640Z,16.43
2018-06-12T23:46:44.132Z,15.27
2018-06-12T23:49:12.729Z,21.60
2018-06-12T23:51:41.169Z,14.20
2018-06-12T23:54:09.636Z,15.03
2018-06-12T23:56:38.144Z,16.30
2018-06-12T23:59:06.573Z,15.53
